sensor_id;sensor_type;location;lat;lon;timestamp;temperature;humidity
9544;DHT22;30418;51.45933468;7.33152330;2023-11-21T00:00:09;12.00;73.00
9544;DHT22;30418;51.45933468;7.33152330;2023-11-21T00:02:43;12.00;73.00
9544;DHT22;30418;51.45933468;7.33152330;2023-11-21T00:05:14;12.00;73.10
9544;DHT22;30418;51.45933468;7.33152330;2023-11-21T00:07:43;12.00;73.10
9544;DHT22;30418;51.45933468;7.33152330;2023-11-21T00:10:12;12.00;73.10
9544;DHT22;30418;51.45933468;7.33152330;2023-11-21T00:12:43;12.00;73.10
9544;DHT22;30418;51.45933468;7.33152330;2023-11-21T00:15:11;12.00;73.00
9544;DHT22;30418;51.45933468;7.33152330;2023-11-21T00:17:40;12.00;73.00
9544;DHT22;30418;51.45933468;7.33152330;2023-11-21T00:20:10;12.00;73.10
9544;DHT22;30418;51.45933468;7.33152330;2023-11-21T00:22:42;12.00;73.00
9544;DHT22;30418;51.45933468;7.33152330;2023-11-21T00:25:12;12.00;73.00
9544;DHT22;30418;51.45933468;7.33152330;2023-11-21T00:27:42;12.00;73.00
9544;DHT22;30418;51.45933468;7.33152330;2023-11-21T00:30:12;12.00;73.00
9544;DHT22;30418;51.45933468;7.33152330;2023-11-21T00:32:42;12.00;73.00
9544;DHT22;30418;51.45933468;7.33152330;2023-11-21T00:35:10;12.00;72.90
9544;DHT22;30418;51.45933468;7.33152330;2023-11-21T00:37:39;12.00;72.90
9544;DHT22;30418;51.45933468;7.33152330;2023-11-21T00:40:11;12.00;72.90
9544;DHT22;30418;51.45933468;7.33152330;2023-11-21T00:42:40;12.00;72.90
9544;DHT22;30418;51.45933468;7.33152330;2023-11-21T00:45:09;12.00;73.00
9544;DHT22;30418;51.45933468;7.33152330;2023-11-21T00:47:38;12.00;73.00
9544;DHT22;30418;51.45933468;7.33152330;2023-11-21T00:50:07;12.00;73.00
9544;DHT22;30418;51.45933468;7.33152330;2023-11-21T00:52:37;12.00;73.10
9544;DHT22;30418;51.45933468;7.33152330;2023-11-21T00:55:06;12.00;73.10
9544;DHT22;30418;51.45933468;7.33152330;2023-11-21T00:57:37;12.00;73.10
9544;DHT22;30418;51.45933468;7.33152330;2023-11-21T01:00:06;12.00;73.10
9544;DHT22;30418;51.45933468;7.33152330;2023-11-21T01:02:40;12.00;73.20
9544;DHT22;30418;51.45933468;7.33152330;2023-11-21T01:05:10;12.00;73.20
9544;DHT22;30418;51.45933468;7.33152330;2023-11-21T01:07:40;12.00;73.20
9544;DHT22;30418;51.45933468;7.33152330;2023-11-21T01:10:08;12.00;73.20
9544;DHT22;30418;51.45933468;7.33152330;2023-11-21T01:12:40;12.00;73.20
9544;DHT22;30418;51.45933468;7.33152330;2023-11-21T01:15:09;12.00;73.20
9544;DHT22;30418;51.45933468;7.33152330;2023-11-21T01:17:39;12.00;73.20
9544;DHT22;30418;51.45933468;7.33152330;2023-11-21T01:20:09;12.00;73.20
9544;DHT22;30418;51.45933468;7.33152330;2023-11-21T01:22:40;12.00;73.20
9544;DHT22;30418;51.45933468;7.33152330;2023-11-21T01:25:10;12.00;73.20
9544;DHT22;30418;51.45933468;7.33152330;2023-11-21T01:27:43;12.00;73.20
9544;DHT22;30418;51.45933468;7.33152330;2023-11-21T01:30:12;12.00;73.20
9544;DHT22;30418;51.45933468;7.33152330;2023-11-21T01:32:41;12.00;73.20
9544;DHT22;30418;51.45933468;7.33152330;2023-11-21T01:35:11;12.00;73.20
9544;DHT22;30418;51.45933468;7.33152330;2023-11-21T01:37:40;11.90;73.10
9544;DHT22;30418;51.45933468;7.33152330;2023-11-21T01:40:10;12.00;73.20
9544;DHT22;30418;51.45933468;7.33152330;2023-11-21T01:42:43;12.00;73.20
9544;DHT22;30418;51.45933468;7.33152330;2023-11-21T01:45:12;12.00;73.10
9544;DHT22;30418;51.45933468;7.33152330;2023-11-21T01:47:42;12.00;73.20
9544;DHT22;30418;51.45933468;7.33152330;2023-11-21T01:50:15;12.00;73.20
9544;DHT22;30418;51.45933468;7.33152330;2023-11-21T01:52:48;12.00;73.20
9544;DHT22;30418;51.45933468;7.33152330;2023-11-21T01:55:17;12.00;73.20
9544;DHT22;30418;51.45933468;7.33152330;2023-11-21T01:57:56;11.90;73.10
9544;DHT22;30418;51.45933468;7.33152330;2023-11-21T02:00:26;11.90;73.90
9544;DHT22;30418;51.45933468;7.33152330;2023-11-21T02:02:56;11.90;73.10
9544;DHT22;30418;51.45933468;7.33152330;2023-11-21T02:05:25;11.90;73.00
9544;DHT22;30418;51.45933468;7.33152330;2023-11-21T02:07:54;11.90;73.00
9544;DHT22;30418;51.45933468;7.33152330;2023-11-21T02:10:24;11.90;73.00
9544;DHT22;30418;51.45933468;7.33152330;2023-11-21T02:12:53;11.90;73.00
9544;DHT22;30418;51.45933468;7.33152330;2023-11-21T02:15:24;11.90;72.90
9544;DHT22;30418;51.45933468;7.33152330;2023-11-21T02:17:56;11.90;73.80
9544;DHT22;30418;51.45933468;7.33152330;2023-11-21T02:20:25;11.90;72.90
9544;DHT22;30418;51.45933468;7.33152330;2023-11-21T02:22:58;11.90;73.00
9544;DHT22;30418;51.45933468;7.33152330;2023-11-21T02:25:29;11.80;72.90
9544;DHT22;30418;51.45933468;7.33152330;2023-11-21T02:28:00;11.90;73.00
9544;DHT22;30418;51.45933468;7.33152330;2023-11-21T02:30:30;11.90;73.00
9544;DHT22;30418;51.45933468;7.33152330;2023-11-21T02:32:59;11.90;73.00
9544;DHT22;30418;51.45933468;7.33152330;2023-11-21T02:35:30;11.80;72.90
9544;DHT22;30418;51.45933468;7.33152330;2023-11-21T02:38:01;11.80;72.80
9544;DHT22;30418;51.45933468;7.33152330;2023-11-21T02:40:30;11.80;72.70
9544;DHT22;30418;51.45933468;7.33152330;2023-11-21T02:42:58;11.80;72.70
9544;DHT22;30418;51.45933468;7.33152330;2023-11-21T02:45:27;11.80;72.70
9544;DHT22;30418;51.45933468;7.33152330;2023-11-21T02:47:56;11.80;72.70
9544;DHT22;30418;51.45933468;7.33152330;2023-11-21T02:50:25;11.80;72.70
9544;DHT22;30418;51.45933468;7.33152330;2023-11-21T02:52:55;11.80;72.80
9544;DHT22;30418;51.45933468;7.33152330;2023-11-21T02:55:27;11.80;72.80
9544;DHT22;30418;51.45933468;7.33152330;2023-11-21T02:57:56;11.80;72.90
9544;DHT22;30418;51.45933468;7.33152330;2023-11-21T03:00:25;11.80;72.90
9544;DHT22;30418;51.45933468;7.33152330;2023-11-21T03:02:55;11.80;73.00
9544;DHT22;30418;51.45933468;7.33152330;2023-11-21T03:05:25;11.70;72.90
9544;DHT22;30418;51.45933468;7.33152330;2023-11-21T03:07:56;11.70;73.00
9544;DHT22;30418;51.45933468;7.33152330;2023-11-21T03:10:27;11.70;73.00
9544;DHT22;30418;51.45933468;7.33152330;2023-11-21T03:12:56;11.70;73.00
9544;DHT22;30418;51.45933468;7.33152330;2023-11-21T03:15:25;11.80;73.00
9544;DHT22;30418;51.45933468;7.33152330;2023-11-21T03:17:54;11.80;73.00
9544;DHT22;30418;51.45933468;7.33152330;2023-11-21T03:20:23;11.80;73.10
9544;DHT22;30418;51.45933468;7.33152330;2023-11-21T03:22:52;11.80;73.10
9544;DHT22;30418;51.45933468;7.33152330;2023-11-21T03:25:21;11.80;73.10
9544;DHT22;30418;51.45933468;7.33152330;2023-11-21T03:27:52;11.80;73.10
9544;DHT22;30418;51.45933468;7.33152330;2023-11-21T03:30:21;11.80;73.10
9544;DHT22;30418;51.45933468;7.33152330;2023-11-21T03:32:50;11.70;73.00
9544;DHT22;30418;51.45933468;7.33152330;2023-11-21T03:35:18;11.80;73.10
9544;DHT22;30418;51.45933468;7.33152330;2023-11-21T03:37:48;11.80;73.20
9544;DHT22;30418;51.45933468;7.33152330;2023-11-21T03:40:16;11.80;73.10
9544;DHT22;30418;51.45933468;7.33152330;2023-11-21T03:42:45;11.80;73.10
9544;DHT22;30418;51.45933468;7.33152330;2023-11-21T03:45:15;11.80;73.10
9544;DHT22;30418;51.45933468;7.33152330;2023-11-21T03:47:44;11.80;73.10
9544;DHT22;30418;51.45933468;7.33152330;2023-11-21T03:50:13;11.80;73.10
9544;DHT22;30418;51.45933468;7.33152330;2023-11-21T03:52:44;11.80;73.10
9544;DHT22;30418;51.45933468;7.33152330;2023-11-21T03:55:12;11.80;73.10
9544;DHT22;30418;51.45933468;7.33152330;2023-11-21T03:57:42;11.80;73.10
9544;DHT22;30418;51.45933468;7.33152330;2023-11-21T04:00:11;11.80;73.10
9544;DHT22;30418;51.45933468;7.33152330;2023-11-21T04:02:42;11.80;73.10
9544;DHT22;30418;51.45933468;7.33152330;2023-11-21T04:05:11;11.80;73.20
9544;DHT22;30418;51.45933468;7.33152330;2023-11-21T04:07:40;11.80;73.10
9544;DHT22;30418;51.45933468;7.33152330;2023-11-21T04:10:09;11.80;73.10
9544;DHT22;30418;51.45933468;7.33152330;2023-11-21T04:12:40;11.80;73.20
9544;DHT22;30418;51.45933468;7.33152330;2023-11-21T04:15:09;11.80;73.10
9544;DHT22;30418;51.45933468;7.33152330;2023-11-21T04:17:39;11.80;73.20
9544;DHT22;30418;51.45933468;7.33152330;2023-11-21T04:20:10;11.80;73.20
9544;DHT22;30418;51.45933468;7.33152330;2023-11-21T04:22:39;11.80;73.20
9544;DHT22;30418;51.45933468;7.33152330;2023-11-21T04:25:11;11.80;73.10
9544;DHT22;30418;51.45933468;7.33152330;2023-11-21T04:27:44;11.80;74.00
9544;DHT22;30418;51.45933468;7.33152330;2023-11-21T04:30:14;11.80;73.10
9544;DHT22;30418;51.45933468;7.33152330;2023-11-21T04:32:44;11.80;73.10
9544;DHT22;30418;51.45933468;7.33152330;2023-11-21T04:35:13;11.80;73.10
9544;DHT22;30418;51.45933468;7.33152330;2023-11-21T04:37:41;11.80;73.10
9544;DHT22;30418;51.45933468;7.33152330;2023-11-21T04:40:11;11.80;73.10
9544;DHT22;30418;51.45933468;7.33152330;2023-11-21T04:42:40;11.80;73.10
9544;DHT22;30418;51.45933468;7.33152330;2023-11-21T04:45:09;11.80;73.20
9544;DHT22;30418;51.45933468;7.33152330;2023-11-21T04:47:40;11.80;73.20
9544;DHT22;30418;51.45933468;7.33152330;2023-11-21T04:50:10;11.80;73.20
9544;DHT22;30418;51.45933468;7.33152330;2023-11-21T04:52:39;11.80;73.20
9544;DHT22;30418;51.45933468;7.33152330;2023-11-21T04:55:08;11.80;73.20
9544;DHT22;30418;51.45933468;7.33152330;2023-11-21T04:57:38;11.80;73.20
9544;DHT22;30418;51.45933468;7.33152330;2023-11-21T05:00:09;11.80;73.20
9544;DHT22;30418;51.45933468;7.33152330;2023-11-21T05:02:41;11.80;73.20
9544;DHT22;30418;51.45933468;7.33152330;2023-11-21T05:05:12;11.80;73.20
9544;DHT22;30418;51.45933468;7.33152330;2023-11-21T05:07:41;11.80;73.20
9544;DHT22;30418;51.45933468;7.33152330;2023-11-21T05:10:10;11.70;73.00
9544;DHT22;30418;51.45933468;7.33152330;2023-11-21T05:12:42;11.70;73.00
9544;DHT22;30418;51.45933468;7.33152330;2023-11-21T05:15:14;11.70;73.00
9544;DHT22;30418;51.45933468;7.33152330;2023-11-21T05:17:44;11.70;73.00
9544;DHT22;30418;51.45933468;7.33152330;2023-11-21T05:20:16;11.70;72.90
9544;DHT22;30418;51.45933468;7.33152330;2023-11-21T05:22:48;11.70;72.90
9544;DHT22;30418;51.45933468;7.33152330;2023-11-21T05:25:17;11.70;73.00
9544;DHT22;30418;51.45933468;7.33152330;2023-11-21T05:27:46;11.60;72.80
9544;DHT22;30418;51.45933468;7.33152330;2023-11-21T05:30:15;11.60;72.80
9544;DHT22;30418;51.45933468;7.33152330;2023-11-21T05:32:43;11.60;73.70
9544;DHT22;30418;51.45933468;7.33152330;2023-11-21T05:35:15;11.60;72.80
9544;DHT22;30418;51.45933468;7.33152330;2023-11-21T05:37:44;11.60;72.90
9544;DHT22;30418;51.45933468;7.33152330;2023-11-21T05:40:14;11.60;72.90
9544;DHT22;30418;51.45933468;7.33152330;2023-11-21T05:42:44;11.60;72.90
9544;DHT22;30418;51.45933468;7.33152330;2023-11-21T05:45:13;11.60;72.80
9544;DHT22;30418;51.45933468;7.33152330;2023-11-21T05:47:44;11.60;72.90
9544;DHT22;30418;51.45933468;7.33152330;2023-11-21T05:50:16;11.60;72.90
9544;DHT22;30418;51.45933468;7.33152330;2023-11-21T05:52:46;11.60;72.90
9544;DHT22;30418;51.45933468;7.33152330;2023-11-21T05:55:16;11.60;72.90
9544;DHT22;30418;51.45933468;7.33152330;2023-11-21T05:57:44;11.50;72.80
9544;DHT22;30418;51.45933468;7.33152330;2023-11-21T06:00:14;11.50;72.80
9544;DHT22;30418;51.45933468;7.33152330;2023-11-21T06:02:48;11.50;72.80
9544;DHT22;30418;51.45933468;7.33152330;2023-11-21T06:05:22;11.50;72.80
9544;DHT22;30418;51.45933468;7.33152330;2023-11-21T06:07:53;11.50;72.80
9544;DHT22;30418;51.45933468;7.33152330;2023-11-21T06:10:23;11.60;73.00
9544;DHT22;30418;51.45933468;7.33152330;2023-11-21T06:12:52;11.50;72.80
9544;DHT22;30418;51.45933468;7.33152330;2023-11-21T06:15:24;11.50;72.90
9544;DHT22;30418;51.45933468;7.33152330;2023-11-21T06:17:53;11.50;72.90
9544;DHT22;30418;51.45933468;7.33152330;2023-11-21T06:20:23;11.50;73.00
9544;DHT22;30418;51.45933468;7.33152330;2023-11-21T06:22:52;11.50;73.00
9544;DHT22;30418;51.45933468;7.33152330;2023-11-21T06:25:21;11.50;73.00
9544;DHT22;30418;51.45933468;7.33152330;2023-11-21T06:27:50;11.50;73.00
9544;DHT22;30418;51.45933468;7.33152330;2023-11-21T06:30:21;11.50;73.00
9544;DHT22;30418;51.45933468;7.33152330;2023-11-21T06:32:50;11.50;73.00
9544;DHT22;30418;51.45933468;7.33152330;2023-11-21T06:35:20;11.50;72.90
9544;DHT22;30418;51.45933468;7.33152330;2023-11-21T06:37:50;11.50;72.90
9544;DHT22;30418;51.45933468;7.33152330;2023-11-21T06:40:19;11.50;72.80
9544;DHT22;30418;51.45933468;7.33152330;2023-11-21T06:42:48;11.50;72.80
9544;DHT22;30418;51.45933468;7.33152330;2023-11-21T06:45:18;11.50;72.80
9544;DHT22;30418;51.45933468;7.33152330;2023-11-21T06:47:47;11.50;72.80
9544;DHT22;30418;51.45933468;7.33152330;2023-11-21T06:50:17;11.40;72.70
9544;DHT22;30418;51.45933468;7.33152330;2023-11-21T06:52:46;11.40;72.70
9544;DHT22;30418;51.45933468;7.33152330;2023-11-21T06:55:17;11.40;72.70
9544;DHT22;30418;51.45933468;7.33152330;2023-11-21T06:57:45;11.40;72.70
9544;DHT22;30418;51.45933468;7.33152330;2023-11-21T07:00:17;11.40;72.80
9544;DHT22;30418;51.45933468;7.33152330;2023-11-21T07:02:47;11.40;72.80
9544;DHT22;30418;51.45933468;7.33152330;2023-11-21T07:05:16;11.40;72.80
9544;DHT22;30418;51.45933468;7.33152330;2023-11-21T07:07:48;11.40;72.80
9544;DHT22;30418;51.45933468;7.33152330;2023-11-21T07:10:19;11.40;72.80
9544;DHT22;30418;51.45933468;7.33152330;2023-11-21T07:12:48;11.40;72.80
9544;DHT22;30418;51.45933468;7.33152330;2023-11-21T07:15:18;11.40;72.80
9544;DHT22;30418;51.45933468;7.33152330;2023-11-21T07:17:47;11.40;72.90
9544;DHT22;30418;51.45933468;7.33152330;2023-11-21T07:20:16;11.40;72.90
9544;DHT22;30418;51.45933468;7.33152330;2023-11-21T07:22:45;11.40;73.00
9544;DHT22;30418;51.45933468;7.33152330;2023-11-21T07:25:14;11.40;73.00
9544;DHT22;30418;51.45933468;7.33152330;2023-11-21T07:27:44;11.40;73.10
9544;DHT22;30418;51.45933468;7.33152330;2023-11-21T07:30:13;11.40;73.20
9544;DHT22;30418;51.45933468;7.33152330;2023-11-21T07:32:42;11.40;73.20
9544;DHT22;30418;51.45933468;7.33152330;2023-11-21T07:35:12;11.50;73.30
9544;DHT22;30418;51.45933468;7.33152330;2023-11-21T07:37:40;11.50;73.40
9544;DHT22;30418;51.45933468;7.33152330;2023-11-21T07:40:10;11.50;73.30
9544;DHT22;30418;51.45933468;7.33152330;2023-11-21T07:42:40;11.50;73.50
9544;DHT22;30418;51.45933468;7.33152330;2023-11-21T07:45:12;11.50;73.50
9544;DHT22;30418;51.45933468;7.33152330;2023-11-21T07:47:42;11.50;73.50
9544;DHT22;30418;51.45933468;7.33152330;2023-11-21T07:50:11;11.50;73.60
9544;DHT22;30418;51.45933468;7.33152330;2023-11-21T07:52:40;11.50;73.50
9544;DHT22;30418;51.45933468;7.33152330;2023-11-21T07:55:09;11.50;73.50
9544;DHT22;30418;51.45933468;7.33152330;2023-11-21T07:57:38;11.50;72.90
9544;DHT22;30418;51.45933468;7.33152330;2023-11-21T08:00:08;11.50;73.50
9544;DHT22;30418;51.45933468;7.33152330;2023-11-21T08:02:41;11.60;73.70
9544;DHT22;30418;51.45933468;7.33152330;2023-11-21T08:05:12;11.60;73.70
9544;DHT22;30418;51.45933468;7.33152330;2023-11-21T08:07:54;11.60;73.70
9544;DHT22;30418;51.45933468;7.33152330;2023-11-21T08:10:23;11.60;73.80
9544;DHT22;30418;51.45933468;7.33152330;2023-11-21T08:12:52;11.60;73.80
9544;DHT22;30418;51.45933468;7.33152330;2023-11-21T08:15:20;11.60;73.80
9544;DHT22;30418;51.45933468;7.33152330;2023-11-21T08:17:50;11.60;73.80
9544;DHT22;30418;51.45933468;7.33152330;2023-11-21T08:20:19;11.60;73.90
9544;DHT22;30418;51.45933468;7.33152330;2023-11-21T08:22:50;11.70;74.00
9544;DHT22;30418;51.45933468;7.33152330;2023-11-21T08:25:19;11.70;74.00
9544;DHT22;30418;51.45933468;7.33152330;2023-11-21T08:27:49;11.70;74.00
9544;DHT22;30418;51.45933468;7.33152330;2023-11-21T08:30:18;11.70;74.00
9544;DHT22;30418;51.45933468;7.33152330;2023-11-21T08:32:50;11.70;74.00
9544;DHT22;30418;51.45933468;7.33152330;2023-11-21T08:35:21;11.70;74.00
9544;DHT22;30418;51.45933468;7.33152330;2023-11-21T08:37:51;11.70;74.00
9544;DHT22;30418;51.45933468;7.33152330;2023-11-21T08:40:20;11.80;74.10
9544;DHT22;30418;51.45933468;7.33152330;2023-11-21T08:42:48;11.80;74.20
9544;DHT22;30418;51.45933468;7.33152330;2023-11-21T08:45:19;11.80;74.20
9544;DHT22;30418;51.45933468;7.33152330;2023-11-21T08:47:47;11.80;74.30
9544;DHT22;30418;51.45933468;7.33152330;2023-11-21T08:50:18;11.80;74.30
9544;DHT22;30418;51.45933468;7.33152330;2023-11-21T08:52:47;11.80;74.30
9544;DHT22;30418;51.45933468;7.33152330;2023-11-21T08:55:16;11.80;74.30
9544;DHT22;30418;51.45933468;7.33152330;2023-11-21T08:57:47;11.80;75.10
9544;DHT22;30418;51.45933468;7.33152330;2023-11-21T09:00:15;11.80;74.30
9544;DHT22;30418;51.45933468;7.33152330;2023-11-21T09:02:46;11.80;74.30
9544;DHT22;30418;51.45933468;7.33152330;2023-11-21T09:05:16;11.80;74.30
9544;DHT22;30418;51.45933468;7.33152330;2023-11-21T09:07:46;11.80;74.40
9544;DHT22;30418;51.45933468;7.33152330;2023-11-21T09:10:16;11.80;75.20
9544;DHT22;30418;51.45933468;7.33152330;2023-11-21T09:12:44;11.80;74.50
9544;DHT22;30418;51.45933468;7.33152330;2023-11-21T09:15:13;11.80;74.60
9544;DHT22;30418;51.45933468;7.33152330;2023-11-21T09:17:42;11.80;74.60
9544;DHT22;30418;51.45933468;7.33152330;2023-11-21T09:20:12;11.90;74.80
9544;DHT22;30418;51.45933468;7.33152330;2023-11-21T09:22:43;11.90;75.00
9544;DHT22;30418;51.45933468;7.33152330;2023-11-21T09:25:13;11.90;75.00
9544;DHT22;30418;51.45933468;7.33152330;2023-11-21T09:27:43;11.90;75.00
9544;DHT22;30418;51.45933468;7.33152330;2023-11-21T09:30:13;11.90;75.10
9544;DHT22;30418;51.45933468;7.33152330;2023-11-21T09:32:42;11.90;75.10
9544;DHT22;30418;51.45933468;7.33152330;2023-11-21T09:35:12;11.90;75.20
9544;DHT22;30418;51.45933468;7.33152330;2023-11-21T09:37:44;11.90;75.30
9544;DHT22;30418;51.45933468;7.33152330;2023-11-21T09:40:20;12.00;76.20
9544;DHT22;30418;51.45933468;7.33152330;2023-11-21T09:42:54;12.00;75.40
9544;DHT22;30418;51.45933468;7.33152330;2023-11-21T09:45:28;12.00;75.40
9544;DHT22;30418;51.45933468;7.33152330;2023-11-21T09:48:01;12.00;75.50
9544;DHT22;30418;51.45933468;7.33152330;2023-11-21T09:50:31;12.00;75.50
9544;DHT22;30418;51.45933468;7.33152330;2023-11-21T09:53:11;12.00;75.50
9544;DHT22;30418;51.45933468;7.33152330;2023-11-21T09:55:43;12.10;75.90
9544;DHT22;30418;51.45933468;7.33152330;2023-11-21T09:58:13;12.10;75.80
9544;DHT22;30418;51.45933468;7.33152330;2023-11-21T10:00:44;12.10;75.70
9544;DHT22;30418;51.45933468;7.33152330;2023-11-21T10:03:14;12.10;75.80
9544;DHT22;30418;51.45933468;7.33152330;2023-11-21T10:05:44;12.10;75.80
9544;DHT22;30418;51.45933468;7.33152330;2023-11-21T10:08:15;12.10;75.80
9544;DHT22;30418;51.45933468;7.33152330;2023-11-21T10:10:44;12.20;75.90
9544;DHT22;30418;51.45933468;7.33152330;2023-11-21T10:13:15;12.20;75.90
9544;DHT22;30418;51.45933468;7.33152330;2023-11-21T10:15:49;12.20;75.90
9544;DHT22;30418;51.45933468;7.33152330;2023-11-21T10:18:20;12.20;75.90
9544;DHT22;30418;51.45933468;7.33152330;2023-11-21T10:20:50;12.20;75.90
9544;DHT22;30418;51.45933468;7.33152330;2023-11-21T10:23:22;12.20;76.00
9544;DHT22;30418;51.45933468;7.33152330;2023-11-21T10:25:52;12.30;76.00
9544;DHT22;30418;51.45933468;7.33152330;2023-11-21T10:28:24;12.30;76.00
9544;DHT22;30418;51.45933468;7.33152330;2023-11-21T10:30:52;12.30;76.00
9544;DHT22;30418;51.45933468;7.33152330;2023-11-21T10:33:27;12.30;75.90
9544;DHT22;30418;51.45933468;7.33152330;2023-11-21T10:35:57;12.30;76.00
9544;DHT22;30418;51.45933468;7.33152330;2023-11-21T10:38:33;12.30;75.90
9544;DHT22;30418;51.45933468;7.33152330;2023-11-21T10:41:13;12.30;76.00
9544;DHT22;30418;51.45933468;7.33152330;2023-11-21T10:43:43;12.40;76.10
9544;DHT22;30418;51.45933468;7.33152330;2023-11-21T10:46:13;12.40;76.10
9544;DHT22;30418;51.45933468;7.33152330;2023-11-21T10:48:42;12.30;76.10
9544;DHT22;30418;51.45933468;7.33152330;2023-11-21T10:51:11;12.40;76.20
9544;DHT22;30418;51.45933468;7.33152330;2023-11-21T10:53:42;12.40;76.40
9544;DHT22;30418;51.45933468;7.33152330;2023-11-21T10:56:14;12.40;76.30
9544;DHT22;30418;51.45933468;7.33152330;2023-11-21T10:58:48;12.40;76.10
9544;DHT22;30418;51.45933468;7.33152330;2023-11-21T11:01:19;12.50;76.20
9544;DHT22;30418;51.45933468;7.33152330;2023-11-21T11:03:51;12.50;76.20
9544;DHT22;30418;51.45933468;7.33152330;2023-11-21T11:06:23;12.50;76.20
9544;DHT22;30418;51.45933468;7.33152330;2023-11-21T11:08:56;12.40;76.20
9544;DHT22;30418;51.45933468;7.33152330;2023-11-21T11:11:25;12.40;76.20
9544;DHT22;30418;51.45933468;7.33152330;2023-11-21T11:13:54;12.50;77.00
9544;DHT22;30418;51.45933468;7.33152330;2023-11-21T11:16:23;12.40;76.10
9544;DHT22;30418;51.45933468;7.33152330;2023-11-21T11:18:53;12.50;76.20
9544;DHT22;30418;51.45933468;7.33152330;2023-11-21T11:21:27;12.50;76.50
9544;DHT22;30418;51.45933468;7.33152330;2023-11-21T11:24:23;12.50;76.50
9544;DHT22;30418;51.45933468;7.33152330;2023-11-21T11:27:09;12.50;76.70
9544;DHT22;30418;51.45933468;7.33152330;2023-11-21T11:30:05;12.50;76.40
9544;DHT22;30418;51.45933468;7.33152330;2023-11-21T11:32:51;12.50;76.50
9544;DHT22;30418;51.45933468;7.33152330;2023-11-21T11:35:42;12.50;76.30
9544;DHT22;30418;51.45933468;7.33152330;2023-11-21T11:38:15;12.50;76.30
9544;DHT22;30418;51.45933468;7.33152330;2023-11-21T11:40:46;12.50;76.20
9544;DHT22;30418;51.45933468;7.33152330;2023-11-21T11:43:24;12.50;76.30
9544;DHT22;30418;51.45933468;7.33152330;2023-11-21T11:45:56;12.50;76.40
9544;DHT22;30418;51.45933468;7.33152330;2023-11-21T11:48:26;12.50;76.30
9544;DHT22;30418;51.45933468;7.33152330;2023-11-21T11:51:05;12.50;76.30
9544;DHT22;30418;51.45933468;7.33152330;2023-11-21T11:53:36;12.50;76.30
9544;DHT22;30418;51.45933468;7.33152330;2023-11-21T11:56:25;12.40;76.20
9544;DHT22;30418;51.45933468;7.33152330;2023-11-21T11:58:56;12.40;76.40
9544;DHT22;30418;51.45933468;7.33152330;2023-11-21T12:01:26;12.40;76.10
9544;DHT22;30418;51.45933468;7.33152330;2023-11-21T12:04:24;12.40;76.10
9544;DHT22;30418;51.45933468;7.33152330;2023-11-21T12:07:02;12.40;76.30
9544;DHT22;30418;51.45933468;7.33152330;2023-11-21T12:09:32;12.40;76.00
9544;DHT22;30418;51.45933468;7.33152330;2023-11-21T12:12:02;12.30;76.00
9544;DHT22;30418;51.45933468;7.33152330;2023-11-21T12:14:31;12.30;76.00
9544;DHT22;30418;51.45933468;7.33152330;2023-11-21T12:17:00;12.30;76.00
9544;DHT22;30418;51.45933468;7.33152330;2023-11-21T12:19:29;12.30;76.20
9544;DHT22;30418;51.45933468;7.33152330;2023-11-21T12:21:59;12.20;76.20
9544;DHT22;30418;51.45933468;7.33152330;2023-11-21T12:24:28;12.20;76.30
9544;DHT22;30418;51.45933468;7.33152330;2023-11-21T12:26:57;12.20;76.20
9544;DHT22;30418;51.45933468;7.33152330;2023-11-21T12:29:27;12.20;76.20
9544;DHT22;30418;51.45933468;7.33152330;2023-11-21T12:31:56;12.20;76.40
9544;DHT22;30418;51.45933468;7.33152330;2023-11-21T12:34:25;12.10;76.20
9544;DHT22;30418;51.45933468;7.33152330;2023-11-21T12:36:54;12.10;76.30
9544;DHT22;30418;51.45933468;7.33152330;2023-11-21T12:39:23;12.10;76.40
9544;DHT22;30418;51.45933468;7.33152330;2023-11-21T12:41:51;12.10;76.40
9544;DHT22;30418;51.45933468;7.33152330;2023-11-21T12:44:20;12.10;76.40
9544;DHT22;30418;51.45933468;7.33152330;2023-11-21T12:46:52;12.10;76.40
9544;DHT22;30418;51.45933468;7.33152330;2023-11-21T12:49:22;12.10;76.40
9544;DHT22;30418;51.45933468;7.33152330;2023-11-21T12:51:51;12.10;76.40
9544;DHT22;30418;51.45933468;7.33152330;2023-11-21T12:54:21;12.10;76.40
9544;DHT22;30418;51.45933468;7.33152330;2023-11-21T12:56:49;12.10;76.40
9544;DHT22;30418;51.45933468;7.33152330;2023-11-21T12:59:20;12.10;76.40
9544;DHT22;30418;51.45933468;7.33152330;2023-11-21T13:01:49;12.10;76.40
9544;DHT22;30418;51.45933468;7.33152330;2023-11-21T13:04:20;12.10;76.40
9544;DHT22;30418;51.45933468;7.33152330;2023-11-21T13:06:49;12.10;76.40
9544;DHT22;30418;51.45933468;7.33152330;2023-11-21T13:09:18;12.10;77.20
9544;DHT22;30418;51.45933468;7.33152330;2023-11-21T13:11:49;12.10;76.40
9544;DHT22;30418;51.45933468;7.33152330;2023-11-21T13:14:29;12.00;76.30
9544;DHT22;30418;51.45933468;7.33152330;2023-11-21T13:16:58;12.00;76.30
9544;DHT22;30418;51.45933468;7.33152330;2023-11-21T13:19:28;12.00;76.30
9544;DHT22;30418;51.45933468;7.33152330;2023-11-21T13:21:58;12.00;76.40
9544;DHT22;30418;51.45933468;7.33152330;2023-11-21T13:24:29;12.00;76.30
9544;DHT22;30418;51.45933468;7.33152330;2023-11-21T13:26:59;12.00;76.30
9544;DHT22;30418;51.45933468;7.33152330;2023-11-21T13:29:27;12.00;76.30
9544;DHT22;30418;51.45933468;7.33152330;2023-11-21T13:31:56;12.00;76.30
9544;DHT22;30418;51.45933468;7.33152330;2023-11-21T13:34:27;12.00;76.30
9544;DHT22;30418;51.45933468;7.33152330;2023-11-21T13:37:00;11.90;76.20
9544;DHT22;30418;51.45933468;7.33152330;2023-11-21T13:39:31;11.90;76.20
9544;DHT22;30418;51.45933468;7.33152330;2023-11-21T13:41:59;11.90;76.20
9544;DHT22;30418;51.45933468;7.33152330;2023-11-21T13:44:30;11.90;76.20
9544;DHT22;30418;51.45933468;7.33152330;2023-11-21T13:47:05;11.90;76.30
9544;DHT22;30418;51.45933468;7.33152330;2023-11-21T13:49:35;11.90;76.40
9544;DHT22;30418;51.45933468;7.33152330;2023-11-21T13:52:08;11.90;76.40